Time,TemperatureF,DewpointF,PressureIn,WindDirection,WindDirectionDegrees,WindSpeedMPH,WindSpeedGustMPH,Humidity,HourlyPrecipIn,Conditions,Clouds,dailyrainin,SoftwareType,DateUTC
2013-01-13 00:02:00,53.2,51.5,30.04,NNW,328,0.0,0.0,94,0.00,,,0.00,Wunderground v.1.13,2013-01-13 05:02:00,
2013-01-13 00:08:00,53.1,51.4,30.04,NNW,328,0.0,0.0,94,0.00,,,0.00,Wunderground v.1.13,2013-01-13 05:08:00,
2013-01-13 00:10:00,53.1,51.1,30.04,NNW,328,0.0,0.0,93,0.00,,,0.00,Wunderground v.1.13,2013-01-13 05:10:00,
2013-01-13 00:14:00,52.9,51.2,30.04,NNW,328,0.0,0.0,94,0.00,,,0.00,Wunderground v.1.13,2013-01-13 05:14:00,
2013-01-13 00:18:00,52.9,51.2,30.04,NNW,328,0.0,0.0,94,0.00,,,0.00,Wunderground v.1.13,2013-01-13 05:18:00,
2013-01-13 00:24:00,52.8,51.1,30.04,NNW,328,0.0,0.0,94,0.00,,,0.00,Wunderground v.1.13,2013-01-13 05:24:00,
2013-01-13 00:30:00,52.6,50.6,30.04,NNW,328,0.0,0.0,93,0.00,,,0.00,Wunderground v.1.13,2013-01-13 05:30:00,
2013-01-13 00:36:00,52.5,50.8,30.04,NNW,328,0.0,0.0,94,0.00,,,0.00,Wunderground v.1.13,2013-01-13 05:36:00,
2013-01-13 00:42:00,52.3,50.6,30.04,NNW,328,0.0,0.0,94,0.00,,,0.00,Wunderground v.1.13,2013-01-13 05:42:00,
2013-01-13 00:48:00,52.3,50.6,30.04,NNW,328,0.0,0.0,94,0.00,,,0.00,Wunderground v.1.13,2013-01-13 05:48:00,
2013-01-13 00:54:00,52.2,50.5,30.04,NNW,328,0.0,0.0,94,0.00,,,0.00,Wunderground v.1.13,2013-01-13 05:54:00,
2013-01-13 01:00:00,52.0,50.3,30.04,NNW,328,0.0,0.0,94,0.00,,,0.00,Wunderground v.1.13,2013-01-13 06:00:00,
2013-01-13 01:06:00,52.0,50.3,30.04,NNW,328,0.0,0.0,94,0.00,,,0.00,Wunderground v.1.13,2013-01-13 06:06:00,
2013-01-13 01:12:00,51.9,50.2,30.04,NNW,328,0.0,0.0,94,0.00,,,0.00,Wunderground v.1.13,2013-01-13 06:12:00,
2013-01-13 01:18:00,51.7,50.0,30.03,NNW,328,0.0,0.0,94,0.00,,,0.00,Wunderground v.1.13,2013-01-13 06:18:00,
2013-01-13 01:24:00,51.7,50.0,30.03,NNW,328,0.0,0.0,94,0.00,,,0.00,Wunderground v.1.13,2013-01-13 06:24:00,
2013-01-13 01:30:00,51.7,50.0,30.04,NNW,328,0.0,0.0,94,0.00,,,0.00,Wunderground v.1.13,2013-01-13 06:30:00,
2013-01-13 01:36:00,51.7,50.0,30.04,NNW,328,0.0,0.0,94,0.00,,,0.00,Wunderground v.1.13,2013-01-13 06:36:00,
2013-01-13 01:42:00,51.6,49.9,30.04,NNW,328,0.0,0.0,94,0.00,,,0.00,Wunderground v.1.13,2013-01-13 06:42:00,
2013-01-13 01:48:00,51.6,50.2,30.04,NNW,328,0.0,0.0,95,0.00,,,0.00,Wunderground v.1.13,2013-01-13 06:48:00,
2013-01-13 01:54:00,51.6,50.2,30.04,NNW,328,0.0,0.0,95,0.00,,,0.00,Wunderground v.1.13,2013-01-13 06:54:00,
2013-01-13 02:00:00,51.6,50.2,30.05,NNW,328,0.0,0.0,95,0.00,,,0.00,Wunderground v.1.13,2013-01-13 07:00:00,
2013-01-13 02:06:00,51.4,50.0,30.05,NNW,328,0.0,0.0,95,0.00,,,0.00,Wunderground v.1.13,2013-01-13 07:06:00,
2013-01-13 02:12:00,51.4,50.0,30.05,NNW,328,0.0,0.0,95,0.00,,,0.00,Wunderground v.1.13,2013-01-13 07:12:00,
2013-01-13 02:18:00,51.4,50.0,30.05,NNW,328,0.0,0.0,95,0.00,,,0.00,Wunderground v.1.13,2013-01-13 07:18:00,
2013-01-13 02:24:00,51.4,50.3,30.05,NNW,328,0.0,0.0,96,0.00,,,0.00,Wunderground v.1.13,2013-01-13 07:24:00,
2013-01-13 02:30:00,51.4,50.3,30.05,NNW,328,0.0,0.0,96,0.00,,,0.00,Wunderground v.1.13,2013-01-13 07:30:00,
2013-01-13 02:36:00,51.3,50.2,30.05,NNW,328,0.0,0.0,96,0.00,,,0.00,Wunderground v.1.13,2013-01-13 07:36:00,
2013-01-13 02:42:00,51.3,50.2,30.05,NNW,328,0.0,0.0,96,0.00,,,0.00,Wunderground v.1.13,2013-01-13 07:42:00,
2013-01-13 02:48:00,51.4,50.3,30.05,NNW,328,0.0,0.0,96,0.00,,,0.00,Wunderground v.1.13,2013-01-13 07:48:00,
2013-01-13 02:54:00,51.4,50.3,30.05,NNW,328,0.0,0.0,96,0.00,,,0.00,Wunderground v.1.13,2013-01-13 07:54:00,
2013-01-13 03:00:00,51.6,50.5,30.04,NNW,328,0.0,0.0,96,0.00,,,0.00,Wunderground v.1.13,2013-01-13 08:00:00,
2013-01-13 03:06:00,51.6,50.5,30.04,NNW,328,0.0,0.0,96,0.00,,,0.00,Wunderground v.1.13,2013-01-13 08:06:00,
2013-01-13 03:12:00,51.6,50.5,30.04,NNW,328,0.0,0.0,96,0.00,,,0.00,Wunderground v.1.13,2013-01-13 08:12:00,
2013-01-13 03:18:00,51.6,50.5,30.04,NNW,328,0.0,0.0,96,0.00,,,0.00,Wunderground v.1.13,2013-01-13 08:18:00,
2013-01-13 03:24:00,51.7,50.6,30.04,NNW,328,0.0,0.0,96,0.00,,,0.00,Wunderground v.1.13,2013-01-13 08:24:00,
2013-01-13 03:30:00,51.7,50.6,30.03,NNW,328,0.0,0.0,96,0.00,,,0.00,Wunderground v.1.13,2013-01-13 08:30:00,
2013-01-13 03:36:00,51.9,51.1,30.03,NNW,328,0.0,0.0,97,0.00,,,0.00,Wunderground v.1.13,2013-01-13 08:36:00,
2013-01-13 03:42:00,51.9,51.1,30.03,NNW,328,0.0,0.0,97,0.00,,,0.00,Wunderground v.1.13,2013-01-13 08:42:00,
2013-01-13 03:48:00,52.0,51.2,30.03,NNW,328,0.0,0.0,97,0.00,,,0.00,Wunderground v.1.13,2013-01-13 08:48:00,
2013-01-13 03:54:00,52.2,51.4,30.03,NNW,328,0.0,0.0,97,0.00,,,0.00,Wunderground v.1.13,2013-01-13 08:54:00,
2013-01-13 04:00:00,52.3,51.5,30.03,NNW,328,0.0,0.0,97,0.00,,,0.00,Wunderground v.1.13,2013-01-13 09:00:00,
2013-01-13 04:06:00,52.3,51.5,30.03,NNW,328,0.0,0.0,97,0.00,,,0.00,Wunderground v.1.13,2013-01-13 09:06:00,
2013-01-13 04:12:00,52.5,51.7,30.03,NNW,328,0.0,0.0,97,0.00,,,0.00,Wunderground v.1.13,2013-01-13 09:12:00,
2013-01-13 04:18:00,52.5,51.7,30.03,NNW,328,0.0,0.0,97,0.00,,,0.00,Wunderground v.1.13,2013-01-13 09:18:00,
2013-01-13 04:24:00,52.5,51.7,30.03,NNW,328,0.0,0.0,97,0.00,,,0.00,Wunderground v.1.13,2013-01-13 09:24:00,
2013-01-13 04:30:00,52.6,51.8,30.02,NNW,328,0.0,0.0,97,0.00,,,0.00,Wunderground v.1.13,2013-01-13 09:30:00,
2013-01-13 04:36:00,52.6,51.8,30.02,NNW,328,0.0,0.0,97,0.00,,,0.00,Wunderground v.1.13,2013-01-13 09:36:00,
2013-01-13 04:42:00,52.6,51.8,30.02,NNW,328,0.0,0.0,97,0.00,,,0.00,Wunderground v.1.13,2013-01-13 09:42:00,
2013-01-13 04:48:00,52.6,51.8,30.02,NNW,328,0.0,0.0,97,0.00,,,0.00,Wunderground v.1.13,2013-01-13 09:48:00,
2013-01-13 04:54:00,52.8,52.0,30.02,NNW,328,0.0,0.0,97,0.00,,,0.00,Wunderground v.1.13,2013-01-13 09:54:00,
2013-01-13 05:00:00,52.8,52.0,30.02,NNW,328,0.0,0.0,97,0.00,,,0.00,Wunderground v.1.13,2013-01-13 10:00:00,
2013-01-13 05:06:00,52.8,52.0,30.02,NNW,328,0.0,0.0,97,0.00,,,0.00,Wunderground v.1.13,2013-01-13 10:06:00,
2013-01-13 05:12:00,52.8,52.0,30.02,NNW,328,0.0,0.0,97,0.00,,,0.00,Wunderground v.1.13,2013-01-13 10:12:00,
2013-01-13 05:18:00,52.8,52.0,30.02,NNW,328,0.0,0.0,97,0.00,,,0.00,Wunderground v.1.13,2013-01-13 10:18:00,
2013-01-13 05:24:00,52.8,52.0,30.02,NNW,328,0.0,0.0,97,0.00,,,0.00,Wunderground v.1.13,2013-01-13 10:24:00,
2013-01-13 05:30:00,52.9,52.1,30.03,NNW,328,0.0,0.0,97,0.00,,,0.00,Wunderground v.1.13,2013-01-13 10:30:00,
2013-01-13 05:36:00,52.9,52.1,30.03,NNW,328,0.0,0.0,97,0.00,,,0.00,Wunderground v.1.13,2013-01-13 10:36:00,
2013-01-13 05:42:00,52.9,52.1,30.03,NNW,328,0.0,0.0,97,0.00,,,0.00,Wunderground v.1.13,2013-01-13 10:42:00,
2013-01-13 05:48:00,52.9,52.1,30.03,NNW,328,0.0,0.0,97,0.00,,,0.00,Wunderground v.1.13,2013-01-13 10:48:00,
2013-01-13 05:54:00,52.9,52.1,30.03,NNW,328,0.0,0.0,97,0.00,,,0.00,Wunderground v.1.13,2013-01-13 10:54:00,
2013-01-13 06:00:00,52.9,52.1,30.03,NNW,328,0.0,0.0,97,0.00,,,0.00,Wunderground v.1.13,2013-01-13 11:00:00,
2013-01-13 06:06:00,52.9,52.1,30.03,NNW,328,0.0,0.0,97,0.00,,,0.00,Wunderground v.1.13,2013-01-13 11:06:00,
2013-01-13 06:12:00,52.9,52.1,30.03,NNW,328,0.0,0.0,97,0.00,,,0.00,Wunderground v.1.13,2013-01-13 11:12:00,
2013-01-13 06:18:00,52.9,52.1,30.03,NNW,328,0.0,0.0,97,0.00,,,0.00,Wunderground v.1.13,2013-01-13 11:18:00,
2013-01-13 06:24:00,53.1,52.3,30.03,NNW,328,0.0,0.0,97,0.00,,,0.00,Wunderground v.1.13,2013-01-13 11:24:00,
2013-01-13 06:30:00,53.1,52.3,30.03,NNW,328,0.0,0.0,97,0.00,,,0.00,Wunderground v.1.13,2013-01-13 11:30:00,
2013-01-13 06:36:00,53.1,52.3,30.04,NNW,328,0.0,0.0,97,0.00,,,0.00,Wunderground v.1.13,2013-01-13 11:36:00,
2013-01-13 06:42:00,53.1,52.3,30.04,NNW,328,0.0,0.0,97,0.00,,,0.00,Wunderground v.1.13,2013-01-13 11:42:00,
2013-01-13 06:48:00,53.1,52.3,30.04,NNW,328,0.0,0.0,97,0.00,,,0.00,Wunderground v.1.13,2013-01-13 11:48:00,
2013-01-13 06:54:00,53.1,52.3,30.04,NNW,328,0.0,0.0,97,0.00,,,0.00,Wunderground v.1.13,2013-01-13 11:54:00,
2013-01-13 07:00:00,53.1,52.3,30.04,NNW,328,0.0,0.0,97,0.00,,,0.00,Wunderground v.1.13,2013-01-13 12:00:00,
2013-01-13 07:06:00,53.1,52.3,30.04,NNW,328,0.0,0.0,97,0.00,,,0.00,Wunderground v.1.13,2013-01-13 12:06:00,
2013-01-13 07:12:00,52.9,52.1,30.04,NW,325,0.0,0.0,97,0.00,,,0.00,Wunderground v.1.13,2013-01-13 12:12:00,
2013-01-13 07:18:00,52.9,52.1,30.05,NNW,328,0.0,0.0,97,0.00,,,0.00,Wunderground v.1.13,2013-01-13 12:18:00,
2013-01-13 07:24:00,52.9,52.1,30.05,NNW,328,0.0,0.0,97,0.00,,,0.00,Wunderground v.1.13,2013-01-13 12:24:00,
2013-01-13 07:30:00,52.8,52.0,30.05,NNW,328,0.0,0.0,97,0.00,,,0.00,Wunderground v.1.13,2013-01-13 12:30:00,
2013-01-13 07:36:00,52.8,52.0,30.05,NNW,328,0.0,0.0,97,0.00,,,0.00,Wunderground v.1.13,2013-01-13 12:36:00,
2013-01-13 07:42:00,52.8,52.0,30.05,NNW,328,0.0,0.0,97,0.00,,,0.00,Wunderground v.1.13,2013-01-13 12:42:00,
2013-01-13 07:48:00,52.8,52.0,30.06,NNW,328,0.0,0.0,97,0.00,,,0.00,Wunderground v.1.13,2013-01-13 12:48:00,
2013-01-13 07:54:00,52.8,52.0,30.06,NNW,328,0.0,0.0,97,0.00,,,0.00,Wunderground v.1.13,2013-01-13 12:54:00,
2013-01-13 08:00:00,52.8,52.0,30.06,NNW,328,0.0,0.0,97,0.00,,,0.00,Wunderground v.1.13,2013-01-13 13:00:00,
2013-01-13 08:06:00,52.8,52.0,30.06,NNW,328,0.0,0.0,97,0.00,,,0.00,Wunderground v.1.13,2013-01-13 13:06:00,
2013-01-13 08:12:00,52.8,52.0,30.06,NNW,328,0.0,0.0,97,0.00,,,0.00,Wunderground v.1.13,2013-01-13 13:12:00,
2013-01-13 08:18:00,52.8,52.0,30.07,NNW,328,0.0,0.0,97,0.00,,,0.00,Wunderground v.1.13,2013-01-13 13:18:00,
2013-01-13 08:24:00,52.9,52.1,30.07,NNW,328,0.0,0.0,97,0.00,,,0.00,Wunderground v.1.13,2013-01-13 13:24:00,
2013-01-13 08:30:00,52.9,52.1,30.07,NNW,328,0.0,0.0,97,0.00,,,0.00,Wunderground v.1.13,2013-01-13 13:30:00,
2013-01-13 08:36:00,52.9,52.1,30.07,NNW,328,0.0,0.0,97,0.00,,,0.00,Wunderground v.1.13,2013-01-13 13:36:00,
2013-01-13 08:42:00,53.1,52.3,30.07,NNW,328,0.0,0.0,97,0.00,,,0.00,Wunderground v.1.13,2013-01-13 13:42:00,
2013-01-13 08:48:00,53.2,52.7,30.07,NNW,328,0.0,0.0,98,0.00,,,0.00,Wunderground v.1.13,2013-01-13 13:48:00,
2013-01-13 08:54:00,53.3,52.5,30.07,NNW,328,0.0,0.0,97,0.00,,,0.00,Wunderground v.1.13,2013-01-13 13:54:00,
2013-01-13 09:00:00,53.8,53.2,30.07,NNW,328,0.0,0.0,98,0.00,,,0.00,Wunderground v.1.13,2013-01-13 14:00:00,
2013-01-13 09:06:00,54.1,53.5,30.07,NNW,328,0.0,0.0,98,0.00,,,0.00,Wunderground v.1.13,2013-01-13 14:06:00,
2013-01-13 09:12:00,55.4,54.8,30.07,NNW,328,0.0,0.0,98,0.00,,,0.00,Wunderground v.1.13,2013-01-13 14:12:00,
2013-01-13 09:18:00,57.0,56.4,30.07,NNW,328,0.0,0.0,98,0.00,,,0.00,Wunderground v.1.13,2013-01-13 14:18:00,
2013-01-13 09:24:00,58.1,57.5,30.07,NNW,328,0.0,0.0,98,0.00,,,0.00,Wunderground v.1.13,2013-01-13 14:24:00,
2013-01-13 09:30:00,58.7,58.1,30.07,NNW,328,0.0,0.0,98,0.00,,,0.00,Wunderground v.1.13,2013-01-13 14:30:00,
2013-01-13 09:36:00,59.6,59.0,30.07,NNW,328,0.0,0.0,98,0.00,,,0.00,Wunderground v.1.13,2013-01-13 14:36:00,
2013-01-13 09:42:00,60.2,59.6,30.07,NNW,328,0.0,0.0,98,0.00,,,0.00,Wunderground v.1.13,2013-01-13 14:42:00,
2013-01-13 09:48:00,61.0,60.4,30.07,NNW,328,0.0,0.0,98,0.00,,,0.00,Wunderground v.1.13,2013-01-13 14:48:00,
2013-01-13 09:54:00,61.5,60.3,30.07,NNW,328,0.0,0.0,96,0.00,,,0.00,Wunderground v.1.13,2013-01-13 14:54:00,
2013-01-13 10:00:00,62.1,60.1,30.07,NNW,328,0.0,0.0,93,0.00,,,0.00,Wunderground v.1.13,2013-01-13 15:00:00,
2013-01-13 10:06:00,62.6,60.2,30.07,West,271,0.0,6.0,92,0.00,,,0.00,Wunderground v.1.13,2013-01-13 15:06:00,
2013-01-13 10:12:00,62.7,59.7,30.07,WSW,248,0.0,0.0,90,0.00,,,0.00,Wunderground v.1.13,2013-01-13 15:12:00,
2013-01-13 10:18:00,62.7,59.1,30.08,WSW,248,0.0,2.0,88,0.00,,,0.00,Wunderground v.1.13,2013-01-13 15:18:00,
2013-01-13 10:24:00,63.1,59.5,30.08,WSW,257,0.0,3.0,88,0.00,,,0.00,Wunderground v.1.13,2013-01-13 15:24:00,
2013-01-13 10:30:00,63.5,59.6,30.07,WSW,250,0.0,0.0,87,0.00,,,0.00,Wunderground v.1.13,2013-01-13 15:30:00,
2013-01-13 10:36:00,63.9,59.3,30.07,WNW,287,0.0,0.0,85,0.00,,,0.00,Wunderground v.1.13,2013-01-13 15:36:00,
2013-01-13 10:42:00,64.2,59.3,30.07,SW,232,0.0,3.0,84,0.00,,,0.00,Wunderground v.1.13,2013-01-13 15:42:00,
2013-01-13 10:48:00,65.0,59.7,30.06,WNW,291,0.0,0.0,83,0.00,,,0.00,Wunderground v.1.13,2013-01-13 15:48:00,
2013-01-13 10:54:00,65.6,60.3,30.06,WSW,248,0.0,0.0,83,0.00,,,0.00,Wunderground v.1.13,2013-01-13 15:54:00,
2013-01-13 11:00:00,66.3,59.9,30.06,WSW,248,0.0,0.0,80,0.00,,,0.00,Wunderground v.1.13,2013-01-13 16:00:00,
2013-01-13 11:06:00,66.6,60.2,30.05,WNW,294,0.0,0.0,80,0.00,,,0.00,Wunderground v.1.13,2013-01-13 16:06:00,
2013-01-13 11:12:00,67.1,60.4,30.05,SSW,198,0.0,0.0,79,0.00,,,0.00,Wunderground v.1.13,2013-01-13 16:12:00,
2013-01-13 11:18:00,67.8,60.0,30.05,SSW,205,1.0,3.0,76,0.00,,,0.00,Wunderground v.1.13,2013-01-13 16:18:00,
2013-01-13 11:24:00,68.4,60.2,30.05,SSW,200,1.0,2.0,75,0.00,,,0.00,Wunderground v.1.13,2013-01-13 16:24:00,
2013-01-13 11:30:00,69.1,60.5,30.03,SW,217,1.0,1.0,74,0.00,,,0.00,Wunderground v.1.13,2013-01-13 16:30:00,
2013-01-13 11:36:00,69.8,60.4,30.03,WSW,244,1.0,2.0,72,0.00,,,0.00,Wunderground v.1.13,2013-01-13 16:36:00,
2013-01-13 11:42:00,69.6,59.8,30.03,West,260,1.0,1.0,71,0.00,,,0.00,Wunderground v.1.13,2013-01-13 16:42:00,
2013-01-13 11:48:00,70.1,60.7,30.02,WSW,253,1.0,1.0,72,0.00,,,0.00,Wunderground v.1.13,2013-01-13 16:48:00,
2013-01-13 11:54:00,70.4,60.1,30.02,NW,311,0.0,1.0,70,0.00,,,0.00,Wunderground v.1.13,2013-01-13 16:54:00,
2013-01-13 12:00:00,70.8,60.5,30.02,WSW,254,1.0,1.0,70,0.00,,,0.00,Wunderground v.1.13,2013-01-13 17:00:00,
2013-01-13 12:06:00,71.5,60.4,30.02,SW,217,0.0,0.0,68,0.00,,,0.00,Wunderground v.1.13,2013-01-13 17:06:00,
2013-01-13 12:12:00,71.5,60.4,30.02,WSW,237,1.0,1.0,68,0.00,,,0.00,Wunderground v.1.13,2013-01-13 17:12:00,
2013-01-13 12:18:00,71.8,60.2,30.01,SSW,202,1.0,1.0,67,0.00,,,0.00,Wunderground v.1.13,2013-01-13 17:18:00,
2013-01-13 12:24:00,71.5,60.0,30.01,NW,316,1.0,1.0,67,0.00,,,0.00,Wunderground v.1.13,2013-01-13 17:24:00,
2013-01-13 12:30:00,71.5,60.4,30.00,SW,236,1.0,5.0,68,0.00,,,0.00,Wunderground v.1.13,2013-01-13 17:30:00,
2013-01-13 12:36:00,72.3,60.7,30.00,SSW,205,1.0,1.0,67,0.00,,,0.00,Wunderground v.1.13,2013-01-13 17:36:00,
2013-01-13 12:42:00,72.1,60.1,30.00,SSW,205,0.0,1.0,66,0.00,,,0.00,Wunderground v.1.13,2013-01-13 17:42:00,
2013-01-13 12:48:00,72.3,60.3,30.00,SW,226,0.0,0.0,66,0.00,,,0.00,Wunderground v.1.13,2013-01-13 17:48:00,
2013-01-13 12:54:00,72.7,60.3,30.00,South,184,1.0,3.0,65,0.00,,,0.00,Wunderground v.1.13,2013-01-13 17:54:00,
2013-01-13 13:00:00,73.2,60.3,30.00,South,188,1.0,1.0,64,0.00,,,0.00,Wunderground v.1.13,2013-01-13 18:00:00,
2013-01-13 13:06:00,73.2,60.3,30.00,South,176,1.0,3.0,64,0.00,,,0.00,Wunderground v.1.13,2013-01-13 18:06:00,
2013-01-13 13:12:00,73.7,60.8,30.00,WNW,291,0.0,4.0,64,0.00,,,0.00,Wunderground v.1.13,2013-01-13 18:12:00,
2013-01-13 13:18:00,73.9,60.1,29.99,WSW,243,1.0,1.0,62,0.00,,,0.00,Wunderground v.1.13,2013-01-13 18:18:00,
2013-01-13 13:24:00,73.9,60.1,29.99,SSW,198,1.0,3.0,62,0.00,,,0.00,Wunderground v.1.13,2013-01-13 18:24:00,
2013-01-13 13:30:00,73.9,60.5,29.98,WSW,240,1.0,1.0,63,0.00,,,0.00,Wunderground v.1.13,2013-01-13 18:30:00,
2013-01-13 13:36:00,73.7,59.9,29.98,SSW,213,2.0,6.0,62,0.00,,,0.00,Wunderground v.1.13,2013-01-13 18:36:00,
2013-01-13 13:42:00,73.3,59.9,29.98,SW,222,2.0,2.0,63,0.00,,,0.00,Wunderground v.1.13,2013-01-13 18:42:00,
2013-01-13 13:48:00,73.2,59.8,29.98,South,189,1.0,1.0,63,0.00,,,0.00,Wunderground v.1.13,2013-01-13 18:48:00,
2013-01-13 13:54:00,73.3,59.9,29.98,South,189,0.0,0.0,63,0.00,,,0.00,Wunderground v.1.13,2013-01-13 18:54:00,
2013-01-13 14:00:00,73.9,60.5,29.98,SW,227,0.0,0.0,63,0.00,,,0.00,Wunderground v.1.13,2013-01-13 19:00:00,
2013-01-13 14:06:00,73.9,60.1,29.98,South,185,0.0,0.0,62,0.00,,,0.00,Wunderground v.1.13,2013-01-13 19:06:00,
2013-01-13 14:12:00,74.0,60.2,29.98,SW,222,0.0,0.0,62,0.00,,,0.00,Wunderground v.1.13,2013-01-13 19:12:00,
2013-01-13 14:18:00,74.0,59.7,29.98,South,191,0.0,0.0,61,0.00,,,0.00,Wunderground v.1.13,2013-01-13 19:18:00,
2013-01-13 14:24:00,74.0,59.7,29.98,WSW,256,1.0,1.0,61,0.00,,,0.00,Wunderground v.1.13,2013-01-13 19:24:00,
2013-01-13 14:30:00,73.9,59.6,29.98,South,184,2.0,2.0,61,0.00,,,0.00,Wunderground v.1.13,2013-01-13 19:30:00,
2013-01-13 14:36:00,74.2,59.9,29.98,South,182,1.0,1.0,61,0.00,,,0.00,Wunderground v.1.13,2013-01-13 19:36:00,
2013-01-13 14:42:00,74.4,59.6,29.98,SSW,203,1.0,1.0,60,0.00,,,0.00,Wunderground v.1.13,2013-01-13 19:42:00,
2013-01-13 14:48:00,74.6,60.3,29.98,SW,234,0.0,0.0,61,0.00,,,0.00,Wunderground v.1.13,2013-01-13 19:48:00,
2013-01-13 14:54:00,74.6,59.3,29.98,WNW,296,1.0,1.0,59,0.00,,,0.00,Wunderground v.1.13,2013-01-13 19:54:00,
2013-01-13 15:00:00,74.2,58.9,29.99,SW,222,0.0,3.0,59,0.00,,,0.00,Wunderground v.1.13,2013-01-13 20:00:00,
2013-01-13 15:06:00,74.4,59.1,29.99,WSW,258,1.0,1.0,59,0.00,,,0.00,Wunderground v.1.13,2013-01-13 20:06:00,
2013-01-13 15:12:00,74.4,59.1,29.99,WSW,257,0.0,2.0,59,0.00,,,0.00,Wunderground v.1.13,2013-01-13 20:12:00,
2013-01-13 15:18:00,74.6,59.3,30.00,SSW,198,1.0,1.0,59,0.00,,,0.00,Wunderground v.1.13,2013-01-13 20:18:00,
2013-01-13 15:24:00,74.7,59.4,30.00,SW,219,0.0,0.0,59,0.00,,,0.00,Wunderground v.1.13,2013-01-13 20:24:00,
2013-01-13 15:30:00,74.7,59.4,30.00,SW,219,0.0,0.0,59,0.00,,,0.00,Wunderground v.1.13,2013-01-13 20:30:00,
2013-01-13 15:36:00,74.7,59.4,30.00,SSW,192,0.0,0.0,59,0.00,,,0.00,Wunderground v.1.13,2013-01-13 20:36:00,
2013-01-13 15:42:00,74.6,59.3,30.00,SSW,206,1.0,1.0,59,0.00,,,0.00,Wunderground v.1.13,2013-01-13 20:42:00,
2013-01-13 15:48:00,74.6,58.8,29.99,South,191,1.0,2.0,58,0.00,,,0.00,Wunderground v.1.13,2013-01-13 20:48:00,
2013-01-13 15:54:00,74.4,59.1,29.99,SSW,198,1.0,2.0,59,0.00,,,0.00,Wunderground v.1.13,2013-01-13 20:54:00,
2013-01-13 16:00:00,74.2,58.9,29.99,NNW,347,1.0,1.0,59,0.00,,,0.00,Wunderground v.1.13,2013-01-13 21:00:00,
2013-01-13 16:06:00,74.0,59.2,30.00,South,191,0.0,2.0,60,0.00,,,0.00,Wunderground v.1.13,2013-01-13 21:06:00,
2013-01-13 16:12:00,74.0,59.2,30.00,South,191,0.0,0.0,60,0.00,,,0.00,Wunderground v.1.13,2013-01-13 21:12:00,
2013-01-13 16:18:00,73.9,59.1,30.00,SSW,202,0.0,0.0,60,0.00,,,0.00,Wunderground v.1.13,2013-01-13 21:18:00,
2013-01-13 16:24:00,73.7,59.4,30.00,SSW,203,0.0,0.0,61,0.00,,,0.00,Wunderground v.1.13,2013-01-13 21:24:00,
2013-01-13 16:30:00,73.5,59.2,30.00,SSW,203,0.0,0.0,61,0.00,,,0.00,Wunderground v.1.13,2013-01-13 21:30:00,
2013-01-13 16:36:00,73.3,59.5,30.00,SSW,203,0.0,0.0,62,0.00,,,0.00,Wunderground v.1.13,2013-01-13 21:36:00,
2013-01-13 16:42:00,73.3,59.5,30.00,SSW,205,0.0,0.0,62,0.00,,,0.00,Wunderground v.1.13,2013-01-13 21:42:00,
2013-01-13 16:48:00,73.2,59.4,30.00,SSW,205,0.0,0.0,62,0.00,,,0.00,Wunderground v.1.13,2013-01-13 21:48:00,
2013-01-13 16:54:00,73.0,59.2,30.00,SSW,205,0.0,0.0,62,0.00,,,0.00,Wunderground v.1.13,2013-01-13 21:54:00,
2013-01-13 17:00:00,72.8,59.5,30.00,SSW,205,0.0,0.0,63,0.00,,,0.00,Wunderground v.1.13,2013-01-13 22:00:00,
2013-01-13 17:06:00,72.7,59.8,30.00,SSW,205,0.0,0.0,64,0.00,,,0.00,Wunderground v.1.13,2013-01-13 22:06:00,
2013-01-13 17:12:00,72.5,59.6,30.00,SSW,198,0.0,0.0,64,0.00,,,0.00,Wunderground v.1.13,2013-01-13 22:12:00,
2013-01-13 17:18:00,72.3,59.9,30.01,SSW,205,0.0,0.0,65,0.00,,,0.00,Wunderground v.1.13,2013-01-13 22:18:00,
2013-01-13 17:24:00,72.0,59.6,30.01,SSW,205,0.0,0.0,65,0.00,,,0.00,Wunderground v.1.13,2013-01-13 22:24:00,
2013-01-13 17:30:00,71.5,59.5,30.00,SSW,205,0.0,0.0,66,0.00,,,0.00,Wunderground v.1.13,2013-01-13 22:30:00,
2013-01-13 17:36:00,71.1,59.6,30.00,SSW,205,0.0,0.0,67,0.00,,,0.00,Wunderground v.1.13,2013-01-13 22:36:00,
2013-01-13 17:42:00,70.8,59.7,30.00,SSW,205,0.0,0.0,68,0.00,,,0.00,Wunderground v.1.13,2013-01-13 22:42:00,
2013-01-13 17:48:00,70.3,59.6,30.00,SSW,205,0.0,0.0,69,0.00,,,0.00,Wunderground v.1.13,2013-01-13 22:48:00,
2013-01-13 17:54:00,69.6,59.0,30.00,SSW,205,0.0,0.0,69,0.00,,,0.00,Wunderground v.1.13,2013-01-13 22:54:00,
2013-01-13 18:00:00,68.9,59.1,30.00,SSW,205,0.0,0.0,71,0.00,,,0.00,Wunderground v.1.13,2013-01-13 23:00:00,
2013-01-13 18:06:00,68.4,59.0,30.00,SSW,205,0.0,0.0,72,0.00,,,0.00,Wunderground v.1.13,2013-01-13 23:06:00,
2013-01-13 18:12:00,67.9,58.5,30.00,SSW,205,0.0,0.0,72,0.00,,,0.00,Wunderground v.1.13,2013-01-13 23:12:00,
2013-01-13 18:18:00,67.4,58.4,30.00,SSW,205,0.0,0.0,73,0.00,,,0.00,Wunderground v.1.13,2013-01-13 23:18:00,
2013-01-13 18:24:00,67.1,58.5,30.00,SSW,205,0.0,0.0,74,0.00,,,0.00,Wunderground v.1.13,2013-01-13 23:24:00,
2013-01-13 18:30:00,66.4,57.9,30.00,SSW,205,0.0,0.0,74,0.00,,,0.00,Wunderground v.1.13,2013-01-13 23:30:00,
2013-01-13 18:36:00,66.0,57.8,30.00,SSW,205,0.0,0.0,75,0.00,,,0.00,Wunderground v.1.13,2013-01-13 23:36:00,
2013-01-13 18:42:00,65.5,57.4,30.00,SSW,205,0.0,0.0,75,0.00,,,0.00,Wunderground v.1.13,2013-01-13 23:42:00,
2013-01-13 18:48:00,65.0,57.2,30.00,SSW,205,0.0,0.0,76,0.00,,,0.00,Wunderground v.1.13,2013-01-13 23:48:00,
2013-01-13 18:54:00,64.7,57.3,30.00,SSW,205,0.0,0.0,77,0.00,,,0.00,Wunderground v.1.13,2013-01-13 23:54:00,
2013-01-13 19:00:00,64.2,57.5,30.00,SSW,205,0.0,0.0,79,0.00,,,0.00,Wunderground v.1.13,2013-01-14 00:00:00,
2013-01-13 19:06:00,63.7,57.1,30.00,SSW,205,0.0,0.0,79,0.00,,,0.00,Wunderground v.1.13,2013-01-14 00:06:00,
2013-01-13 19:12:00,63.2,56.9,30.00,SSW,205,0.0,0.0,80,0.00,,,0.00,Wunderground v.1.13,2013-01-14 00:12:00,
2013-01-13 19:18:00,62.9,57.0,30.00,SSW,205,0.0,0.0,81,0.00,,,0.00,Wunderground v.1.13,2013-01-14 00:18:00,
2013-01-13 19:24:00,62.6,57.4,30.00,SSW,205,0.0,0.0,83,0.00,,,0.00,Wunderground v.1.13,2013-01-14 00:24:00,
2013-01-13 19:30:00,62.3,57.4,30.00,SSW,205,0.0,0.0,84,0.00,,,0.00,Wunderground v.1.13,2013-01-14 00:30:00,
2013-01-13 19:36:00,62.1,57.2,30.00,SSW,205,0.0,0.0,84,0.00,,,0.00,Wunderground v.1.13,2013-01-14 00:36:00,
2013-01-13 19:42:00,62.1,57.2,30.00,SSW,205,0.0,0.0,84,0.00,,,0.00,Wunderground v.1.13,2013-01-14 00:42:00,
2013-01-13 19:48:00,62.3,57.7,29.99,SSW,205,0.0,0.0,85,0.00,,,0.00,Wunderground v.1.13,2013-01-14 00:48:00,
2013-01-13 19:54:00,62.3,58.1,29.99,SSW,205,0.0,0.0,86,0.00,,,0.00,Wunderground v.1.13,2013-01-14 00:54:00,
2013-01-13 20:00:00,62.6,58.0,29.99,SSW,205,0.0,0.0,85,0.00,,,0.00,Wunderground v.1.13,2013-01-14 01:00:00,
2013-01-13 20:06:00,62.7,58.1,29.99,SSW,205,0.0,0.0,85,0.00,,,0.00,Wunderground v.1.13,2013-01-14 01:06:00,
2013-01-13 20:12:00,62.9,58.3,29.99,SSW,205,0.0,0.0,85,0.00,,,0.00,Wunderground v.1.13,2013-01-14 01:12:00,
2013-01-13 20:18:00,63.2,58.3,30.00,SSW,205,0.0,0.0,84,0.00,,,0.00,Wunderground v.1.13,2013-01-14 01:18:00,
2013-01-13 20:24:00,63.4,58.5,30.00,SSW,205,0.0,0.0,84,0.00,,,0.00,Wunderground v.1.13,2013-01-14 01:24:00,
2013-01-13 20:30:00,63.7,58.8,30.00,SSW,205,0.0,0.0,84,0.00,,,0.00,Wunderground v.1.13,2013-01-14 01:30:00,
2013-01-13 20:36:00,63.9,58.6,30.00,SSW,205,0.0,0.0,83,0.00,,,0.00,Wunderground v.1.13,2013-01-14 01:36:00,
2013-01-13 20:42:00,63.9,58.6,30.00,SSW,205,0.0,0.0,83,0.00,,,0.00,Wunderground v.1.13,2013-01-14 01:42:00,
2013-01-13 20:48:00,64.0,58.7,29.99,SSW,205,0.0,0.0,83,0.00,,,0.00,Wunderground v.1.13,2013-01-14 01:48:00,
2013-01-13 20:54:00,64.2,58.9,29.99,SSW,205,0.0,0.0,83,0.00,,,0.00,Wunderground v.1.13,2013-01-14 01:54:00,
2013-01-13 21:00:00,64.3,58.7,29.99,SSW,205,0.0,0.0,82,0.00,,,0.00,Wunderground v.1.13,2013-01-14 02:00:00,
2013-01-13 21:06:00,64.5,58.9,29.99,SSW,196,0.0,0.0,82,0.00,,,0.00,Wunderground v.1.13,2013-01-14 02:06:00,
2013-01-13 21:12:00,64.5,58.9,29.99,SSW,196,0.0,0.0,82,0.00,,,0.00,Wunderground v.1.13,2013-01-14 02:12:00,
2013-01-13 21:18:00,64.7,58.7,29.99,SSW,196,0.0,0.0,81,0.00,,,0.00,Wunderground v.1.13,2013-01-14 02:18:00,
2013-01-13 21:24:00,64.7,59.1,29.99,SSW,196,0.0,0.0,82,0.00,,,0.00,Wunderground v.1.13,2013-01-14 02:24:00,
2013-01-13 21:30:00,64.8,58.8,29.99,SSW,196,0.0,0.0,81,0.00,,,0.00,Wunderground v.1.13,2013-01-14 02:30:00,
2013-01-13 21:36:00,65.0,59.0,29.99,SSW,196,0.0,0.0,81,0.00,,,0.00,Wunderground v.1.13,2013-01-14 02:36:00,
2013-01-13 21:42:00,65.0,59.0,29.99,SSW,202,0.0,1.0,81,0.00,,,0.00,Wunderground v.1.13,2013-01-14 02:42:00,
2013-01-13 21:48:00,65.2,59.2,30.00,SW,227,1.0,1.0,81,0.00,,,0.00,Wunderground v.1.13,2013-01-14 02:48:00,
2013-01-13 21:54:00,65.2,59.2,30.00,SW,227,0.0,0.0,81,0.00,,,0.00,Wunderground v.1.13,2013-01-14 02:54:00,
2013-01-13 22:00:00,65.3,59.0,30.00,South,188,0.0,0.0,80,0.00,,,0.00,Wunderground v.1.13,2013-01-14 03:00:00,
2013-01-13 22:06:00,65.3,59.0,30.00,West,264,0.0,0.0,80,0.00,,,0.00,Wunderground v.1.13,2013-01-14 03:06:00,
2013-01-13 22:12:00,65.5,59.2,30.00,WSW,251,0.0,0.0,80,0.00,,,0.00,Wunderground v.1.13,2013-01-14 03:12:00,
2013-01-13 22:18:00,65.5,59.2,30.01,SSW,203,0.0,0.0,80,0.00,,,0.00,Wunderground v.1.13,2013-01-14 03:18:00,
2013-01-13 22:24:00,65.5,59.2,30.01,SW,232,0.0,0.0,80,0.00,,,0.00,Wunderground v.1.13,2013-01-14 03:24:00,
2013-01-13 22:30:00,65.5,59.2,30.00,SSW,202,0.0,0.0,80,0.00,,,0.00,Wunderground v.1.13,2013-01-14 03:30:00,
2013-01-13 22:36:00,65.5,59.2,30.00,SSW,206,0.0,0.0,80,0.00,,,0.00,Wunderground v.1.13,2013-01-14 03:36:00,
2013-01-13 22:42:00,65.5,59.2,30.00,SSW,213,1.0,1.0,80,0.00,,,0.00,Wunderground v.1.13,2013-01-14 03:42:00,
2013-01-13 22:48:00,65.5,58.8,30.00,SW,220,1.0,5.0,79,0.00,,,0.00,Wunderground v.1.13,2013-01-14 03:48:00,
2013-01-13 22:54:00,65.5,59.2,30.00,SW,222,1.0,1.0,80,0.00,,,0.00,Wunderground v.1.13,2013-01-14 03:54:00,
2013-01-13 23:00:00,65.3,59.0,30.00,SW,222,0.0,0.0,80,0.00,,,0.00,Wunderground v.1.13,2013-01-14 04:00:00,
2013-01-13 23:06:00,65.3,59.0,30.00,SW,220,0.0,0.0,80,0.00,,,0.00,Wunderground v.1.13,2013-01-14 04:06:00,
2013-01-13 23:12:00,65.2,58.9,30.00,SSW,196,0.0,0.0,80,0.00,,,0.00,Wunderground v.1.13,2013-01-14 04:12:00,
2013-01-13 23:18:00,65.2,58.9,30.00,SSW,196,0.0,0.0,80,0.00,,,0.00,Wunderground v.1.13,2013-01-14 04:18:00,
2013-01-13 23:24:00,65.2,59.2,30.00,SSW,196,0.0,0.0,81,0.00,,,0.00,Wunderground v.1.13,2013-01-14 04:24:00,
2013-01-13 23:30:00,65.0,59.0,30.00,SSW,208,0.0,0.0,81,0.00,,,0.00,Wunderground v.1.13,2013-01-14 04:30:00,
2013-01-13 23:36:00,65.0,59.0,30.01,SSW,196,1.0,1.0,81,0.00,,,0.00,Wunderground v.1.13,2013-01-14 04:36:00,
2013-01-13 23:42:00,65.0,59.0,30.01,SW,226,1.0,1.0,81,0.00,,,0.00,Wunderground v.1.13,2013-01-14 04:42:00,
2013-01-13 23:48:00,65.0,59.0,30.00,SSW,210,0.0,0.0,81,0.00,,,0.00,Wunderground v.1.13,2013-01-14 04:48:00,
2013-01-13 23:54:00,65.0,59.4,30.00,SSW,208,0.0,0.0,82,0.00,,,0.00,Wunderground v.1.13,2013-01-14 04:54:00,